Terminal Aerodrome Forecast
Issued by NWS Blacksburg, VA

Home | Current Version | Previous Version | Text Only | Print | Product List | Glossary On
Versions: 1 2 3 4 5 6 7 8 9 10 11 12 13 14 15 16 17 18 19 20 21 22 23 24 25 26
000
FTUS41 KRNK 060300 AAB
TAFLYH
TAF AMD
KLYH 060300Z 0603/0624 03003KT P6SM OVC022
      TEMPO 0603/0605 5SM -SHRA BR BKN012
     FM060500 02005KT 6SM -SHRA BR OVC025
     FM060800 01005KT 4SM -SHRA BR OVC015
     FM061900 35008KT 6SM -SHRA BR OVC040=

USA.gov is the U.S. government's official web portal to all federal, state and local government web resources and services.